sensor_id;sensor_type;location;lat;lon;timestamp;temperature;humidity
14154;DHT22;7157;53.144;7.570;2024-01-11T00:04:27;-4.32;101.28
14154;DHT22;7157;53.144;7.570;2024-01-11T00:14:31;-4.42;101.79
14154;DHT22;7157;53.144;7.570;2024-01-11T00:24:34;-4.28;101.99
14154;DHT22;7157;53.144;7.570;2024-01-11T00:34:41;-4.22;101.80
14154;DHT22;7157;53.144;7.570;2024-01-11T00:44:44;-4.24;101.91
14154;DHT22;7157;53.144;7.570;2024-01-11T00:54:49;-4.30;102.02
14154;DHT22;7157;53.144;7.570;2024-01-11T01:04:52;-4.39;101.70
14154;DHT22;7157;53.144;7.570;2024-01-11T01:14:56;-4.54;101.71
14154;DHT22;7157;53.144;7.570;2024-01-11T01:24:59;-4.56;101.35
14154;DHT22;7157;53.144;7.570;2024-01-11T01:35:04;-4.69;101.32
14154;DHT22;7157;53.144;7.570;2024-01-11T01:45:07;-4.84;101.32
14154;DHT22;7157;53.144;7.570;2024-01-11T01:55:12;-4.76;100.84
14154;DHT22;7157;53.144;7.570;2024-01-11T02:05:17;-4.80;100.52
14154;DHT22;7157;53.144;7.570;2024-01-11T02:15:22;-4.82;100.53
14154;DHT22;7157;53.144;7.570;2024-01-11T02:25:26;-4.89;100.25
14154;DHT22;7157;53.144;7.570;2024-01-11T02:35:29;-4.89;100.06
14154;DHT22;7157;53.144;7.570;2024-01-11T02:45:34;-4.98;99.61
14154;DHT22;7157;53.144;7.570;2024-01-11T02:55:37;-5.02;99.95
14154;DHT22;7157;53.144;7.570;2024-01-11T03:05:42;-5.09;99.92
14154;DHT22;7157;53.144;7.570;2024-01-11T03:15:44;-5.20;100.20
14154;DHT22;7157;53.144;7.570;2024-01-11T03:25:49;-5.12;100.06
14154;DHT22;7157;53.144;7.570;2024-01-11T03:35:51;-5.16;100.47
14154;DHT22;7157;53.144;7.570;2024-01-11T03:45:56;-4.75;100.45
14154;DHT22;7157;53.144;7.570;2024-01-11T03:56:00;-4.42;100.99
14154;DHT22;7157;53.144;7.570;2024-01-11T04:06:04;-4.12;100.92
14154;DHT22;7157;53.144;7.570;2024-01-11T04:16:08;-3.93;101.51
14154;DHT22;7157;53.144;7.570;2024-01-11T04:26:12;-3.75;101.57
14154;DHT22;7157;53.144;7.570;2024-01-11T04:36:15;-3.58;101.57
14154;DHT22;7157;53.144;7.570;2024-01-11T04:46:20;-3.38;101.41
14154;DHT22;7157;53.144;7.570;2024-01-11T04:56:23;-3.23;101.60
14154;DHT22;7157;53.144;7.570;2024-01-11T05:06:27;-3.19;101.83
14154;DHT22;7157;53.144;7.570;2024-01-11T05:16:31;-3.03;101.84
14154;DHT22;7157;53.144;7.570;2024-01-11T05:26:35;-2.90;101.89
14154;DHT22;7157;53.144;7.570;2024-01-11T05:36:38;-2.82;102.17
14154;DHT22;7157;53.144;7.570;2024-01-11T05:46:42;-2.75;102.82
14154;DHT22;7157;53.144;7.570;2024-01-11T05:56:45;-2.58;102.54
14154;DHT22;7157;53.144;7.570;2024-01-11T06:06:50;-2.62;102.76
14154;DHT22;7157;53.144;7.570;2024-01-11T06:16:52;-2.61;104.05
14154;DHT22;7157;53.144;7.570;2024-01-11T06:26:56;-2.47;104.59
14154;DHT22;7157;53.144;7.570;2024-01-11T06:36:59;-2.27;104.89
14154;DHT22;7157;53.144;7.570;2024-01-11T06:47:03;-2.00;104.96
14154;DHT22;7157;53.144;7.570;2024-01-11T06:57:07;-1.75;104.47
14154;DHT22;7157;53.144;7.570;2024-01-11T07:07:11;-1.62;104.65
14154;DHT22;7157;53.144;7.570;2024-01-11T07:17:14;-1.54;105.14
14154;DHT22;7157;53.144;7.570;2024-01-11T07:27:18;-1.42;106.20
14154;DHT22;7157;53.144;7.570;2024-01-11T07:37:21;-1.13;105.55
14154;DHT22;7157;53.144;7.570;2024-01-11T07:47:25;-1.11;106.34
14154;DHT22;7157;53.144;7.570;2024-01-11T07:57:28;-0.81;106.92
14154;DHT22;7157;53.144;7.570;2024-01-11T08:07:33;-0.66;106.80
14154;DHT22;7157;53.144;7.570;2024-01-11T08:17:35;-0.45;107.73
14154;DHT22;7157;53.144;7.570;2024-01-11T08:27:42;-0.30;108.53
14154;DHT22;7157;53.144;7.570;2024-01-11T08:37:45;0.08;107.81
14154;DHT22;7157;53.144;7.570;2024-01-11T08:47:49;-0.01;109.95
14154;DHT22;7157;53.144;7.570;2024-01-11T08:57:53;0.10;111.58
14154;DHT22;7157;53.144;7.570;2024-01-11T09:07:57;0.32;111.66
14154;DHT22;7157;53.144;7.570;2024-01-11T09:18:00;0.52;110.89
14154;DHT22;7157;53.144;7.570;2024-01-11T09:28:05;0.64;110.77
14154;DHT22;7157;53.144;7.570;2024-01-11T09:38:08;0.82;110.65
14154;DHT22;7157;53.144;7.570;2024-01-11T09:48:12;0.71;111.37
14154;DHT22;7157;53.144;7.570;2024-01-11T09:58:15;0.99;110.68
14154;DHT22;7157;53.144;7.570;2024-01-11T10:08:21;0.92;111.33
14154;DHT22;7157;53.144;7.570;2024-01-11T10:18:24;0.83;112.44
14154;DHT22;7157;53.144;7.570;2024-01-11T10:28:28;0.93;112.52
14154;DHT22;7157;53.144;7.570;2024-01-11T10:38:35;0.98;112.41
14154;DHT22;7157;53.144;7.570;2024-01-11T10:48:43;1.21;111.81
14154;DHT22;7157;53.144;7.570;2024-01-11T10:58:47;1.49;111.07
14154;DHT22;7157;53.144;7.570;2024-01-11T11:08:51;1.90;110.11
14154;DHT22;7157;53.144;7.570;2024-01-11T11:18:55;1.92;109.49
14154;DHT22;7157;53.144;7.570;2024-01-11T11:29:00;1.90;109.84
14154;DHT22;7157;53.144;7.570;2024-01-11T11:39:03;1.92;110.11
14154;DHT22;7157;53.144;7.570;2024-01-11T11:49:07;1.84;110.78
14154;DHT22;7157;53.144;7.570;2024-01-11T11:59:11;2.17;110.47
14154;DHT22;7157;53.144;7.570;2024-01-11T12:09:19;2.14;110.27
14154;DHT22;7157;53.144;7.570;2024-01-11T12:19:23;2.11;110.57
14154;DHT22;7157;53.144;7.570;2024-01-11T12:29:29;2.12;110.29
14154;DHT22;7157;53.144;7.570;2024-01-11T12:39:45;2.42;109.77
14154;DHT22;7157;53.144;7.570;2024-01-11T12:49:49;2.10;110.75
14154;DHT22;7157;53.144;7.570;2024-01-11T12:59:53;2.39;110.13
14154;DHT22;7157;53.144;7.570;2024-01-11T13:09:58;2.26;110.68
14154;DHT22;7157;53.144;7.570;2024-01-11T13:20:01;2.12;112.14
14154;DHT22;7157;53.144;7.570;2024-01-11T13:30:07;2.08;113.45
14154;DHT22;7157;53.144;7.570;2024-01-11T13:40:11;2.12;114.06
14154;DHT22;7157;53.144;7.570;2024-01-11T13:50:16;2.24;114.19
14154;DHT22;7157;53.144;7.570;2024-01-11T14:00:20;2.27;114.53
14154;DHT22;7157;53.144;7.570;2024-01-11T14:10:24;2.30;114.87
14154;DHT22;7157;53.144;7.570;2024-01-11T14:20:29;2.43;114.48
14154;DHT22;7157;53.144;7.570;2024-01-11T14:30:34;2.47;114.35
14154;DHT22;7157;53.144;7.570;2024-01-11T14:40:37;2.41;114.40
14154;DHT22;7157;53.144;7.570;2024-01-11T14:50:41;2.23;115.60
14154;DHT22;7157;53.144;7.570;2024-01-11T15:00:44;2.28;115.64
14154;DHT22;7157;53.144;7.570;2024-01-11T15:10:49;2.21;116.30
14154;DHT22;7157;53.144;7.570;2024-01-11T15:20:52;2.26;116.28
14154;DHT22;7157;53.144;7.570;2024-01-11T15:30:56;2.36;115.74
14154;DHT22;7157;53.144;7.570;2024-01-11T15:40:59;2.43;115.36
14154;DHT22;7157;53.144;7.570;2024-01-11T15:51:04;2.30;115.93
14154;DHT22;7157;53.144;7.570;2024-01-11T16:01:07;2.40;115.56
14154;DHT22;7157;53.144;7.570;2024-01-11T16:11:11;2.47;115.38
14154;DHT22;7157;53.144;7.570;2024-01-11T16:21:14;2.50;114.78
14154;DHT22;7157;53.144;7.570;2024-01-11T16:31:19;2.22;115.89
14154;DHT22;7157;53.144;7.570;2024-01-11T16:41:23;2.17;116.34
14154;DHT22;7157;53.144;7.570;2024-01-11T16:51:28;2.25;116.00
14154;DHT22;7157;53.144;7.570;2024-01-11T17:01:31;2.46;115.42
14154;DHT22;7157;53.144;7.570;2024-01-11T17:11:38;2.40;115.00
14154;DHT22;7157;53.144;7.570;2024-01-11T17:21:42;2.57;114.53
14154;DHT22;7157;53.144;7.570;2024-01-11T17:31:48;2.37;114.61
14154;DHT22;7157;53.144;7.570;2024-01-11T17:41:50;2.42;114.33
14154;DHT22;7157;53.144;7.570;2024-01-11T17:51:55;2.44;114.19
14154;DHT22;7157;53.144;7.570;2024-01-11T18:01:58;2.41;113.67
14154;DHT22;7157;53.144;7.570;2024-01-11T18:12:03;2.41;113.58
14154;DHT22;7157;53.144;7.570;2024-01-11T18:22:06;2.37;113.67
14154;DHT22;7157;53.144;7.570;2024-01-11T18:32:11;2.31;113.54
14154;DHT22;7157;53.144;7.570;2024-01-11T18:42:14;2.30;113.56
14154;DHT22;7157;53.144;7.570;2024-01-11T18:52:19;2.31;113.45
14154;DHT22;7157;53.144;7.570;2024-01-11T19:02:22;2.21;113.28
14154;DHT22;7157;53.144;7.570;2024-01-11T19:12:26;2.21;113.38
14154;DHT22;7157;53.144;7.570;2024-01-11T19:22:29;2.19;113.17
14154;DHT22;7157;53.144;7.570;2024-01-11T19:32:34;2.11;113.22
14154;DHT22;7157;53.144;7.570;2024-01-11T19:42:37;1.94;112.84
14154;DHT22;7157;53.144;7.570;2024-01-11T19:52:42;1.67;112.87
14154;DHT22;7157;53.144;7.570;2024-01-11T20:02:45;1.49;113.24
14154;DHT22;7157;53.144;7.570;2024-01-11T20:12:49;1.36;113.35
14154;DHT22;7157;53.144;7.570;2024-01-11T20:22:52;1.23;113.06
14154;DHT22;7157;53.144;7.570;2024-01-11T20:32:56;1.06;112.97
14154;DHT22;7157;53.144;7.570;2024-01-11T20:42:59;0.98;113.38
14154;DHT22;7157;53.144;7.570;2024-01-11T20:53:04;0.96;113.67
14154;DHT22;7157;53.144;7.570;2024-01-11T21:03:07;0.88;113.51
14154;DHT22;7157;53.144;7.570;2024-01-11T21:13:27;0.68;114.29
14154;DHT22;7157;53.144;7.570;2024-01-11T21:23:32;0.64;114.38
14154;DHT22;7157;53.144;7.570;2024-01-11T21:33:42;0.63;114.13
14154;DHT22;7157;53.144;7.570;2024-01-11T21:43:45;0.58;113.68
14154;DHT22;7157;53.144;7.570;2024-01-11T21:53:49;0.42;113.77
14154;DHT22;7157;53.144;7.570;2024-01-11T22:03:58;0.28;113.81
14154;DHT22;7157;53.144;7.570;2024-01-11T22:14:03;0.14;113.93
14154;DHT22;7157;53.144;7.570;2024-01-11T22:24:06;0.10;114.12
14154;DHT22;7157;53.144;7.570;2024-01-11T22:34:10;-0.08;113.70
14154;DHT22;7157;53.144;7.570;2024-01-11T22:44:13;-0.08;113.87
14154;DHT22;7157;53.144;7.570;2024-01-11T22:54:17;-0.21;113.53
14154;DHT22;7157;53.144;7.570;2024-01-11T23:04:20;-0.20;113.64
14154;DHT22;7157;53.144;7.570;2024-01-11T23:14:24;-0.23;113.61
14154;DHT22;7157;53.144;7.570;2024-01-11T23:24:28;-0.27;113.57
14154;DHT22;7157;53.144;7.570;2024-01-11T23:34:33;-0.16;113.68
14154;DHT22;7157;53.144;7.570;2024-01-11T23:44:35;-0.23;113.47
14154;DHT22;7157;53.144;7.570;2024-01-11T23:54:40;-0.23;113.45
